Aviation Digital Data Service (ADDS)

Output produced by METARs form (0721 UTC 23 September 2017)
found at http://www.aviationweather.gov/adds/metars/
 
KDUJ 230653Z AUTO 01003KT 10SM CLR 15/10 A3012 RMK AO2 SLP189 T01500100
KDUJ 230553Z AUTO 05004KT 10SM CLR 17/09 A3013 RMK AO2 SLP191 T01670094 10217 20161 53000
KDUJ 230453Z AUTO 10006KT 10SM CLR 17/10 A3013 RMK AO2 SLP190 T01720100 402830133
KDUJ 230353Z AUTO 09005KT 10SM CLR 17/11 A3013 RMK AO2 SLP192 T01670106
KDUJ 230253Z AUTO 06006KT 10SM CLR 19/11 A3013 RMK AO2 SLP193 T01890106 51006
KDUJ 230153Z AUTO 01003KT 10SM CLR 19/11 A3013 RMK AO2 SLP194 T01940111
KDUJ 230053Z AUTO 35004KT 10SM CLR 20/11 A3012 RMK AO2 SLP191 T02000111
KDUJ 222353Z AUTO 01005KT 10SM CLR 22/11 A3011 RMK AO2 SLP189 T02170106 10283 20217 53002
KDUJ 222253Z AUTO 34006KT 10SM CLR 23/12 A3011 RMK AO2 SLP185 T02330122
KDUJ 222153Z AUTO 02005KT 10SM CLR 27/08 A3010 RMK AO2 SLP181 T02670083
KDUJ 222053Z AUTO 31006KT 10SM CLR 27/11 A3010 RMK AO2 SLP182 T02720106 58010
KDUJ 221953Z AUTO VRB03KT 10SM CLR 28/11 A3011 RMK AO2 SLP185 T02780111
KDUJ 221853Z AUTO 34007KT 10SM CLR 28/06 A3013 RMK AO2 SLP189 T02780061
KDUJ 221753Z AUTO 00000KT 10SM CLR 27/06 A3013 RMK AO2 SLP191 T02720061 10272 20139 58013
KDUJ 221653Z AUTO 35007KT 10SM CLR 26/11 A3015 RMK AO2 SLP198 T02560106
KDUJ 221553Z AUTO 36004KT 10SM CLR 24/12 A3017 RMK AO2 SLP204 T02440122
KDUJ 221453Z AUTO 35004KT 10SM CLR 21/13 A3017 RMK AO2 SLP208 T02110133 53003
KDUJ 221353Z AUTO 00000KT 10SM CLR 18/15 A3017 RMK AO2 SLP207 T01780150
KDUJ 221253Z AUTO 00000KT 7SM CLR 17/14 A3016 RMK AO2 SLP204 T01670144
KDUJ 221206Z AUTO 00000KT 3SM BR CLR 14/14 A3016 RMK AO2 T01440139
KDUJ 221158Z AUTO 00000KT 1SM BR CLR 14/13 A3017 RMK AO2 T01390133
KDUJ 221153Z AUTO 00000KT 1/4SM FG CLR 13/12 A3017 RMK AO2 SLP208 T01330122 10178 20133 51008
KDUJ 221142Z AUTO 00000KT 1/4SM FG CLR 14/13 A3017 RMK AO2 VIS M1/4V1 3/4 T01440133
KDUJ 221135Z AUTO 00000KT 1 1/2SM BR CLR 15/13 A3017 RMK AO2 VIS 1/2V4 T01500133
KDUJ 221104Z AUTO 00000KT 5SM BR CLR 14/13 A3016 RMK AO2 T01440133
KDUJ 221053Z AUTO 00000KT 2 1/2SM BR CLR 14/13 A3016 RMK AO2 SLP203 T01440133
KDUJ 220953Z AUTO 01003KT 8SM CLR 16/13 A3015 RMK AO2 SLP199 T01560133
KDUJ 220853Z AUTO 08003KT 7SM CLR 15/13 A3014 RMK AO2 SLP194 T01500133 55001
KDUJ 220753Z AUTO 00000KT 9SM CLR 16/14 A3014 RMK AO2 SLP194 T01560139
KDUJ 220653Z AUTO 08004KT 10SM CLR 16/14 A3014 RMK AO2 SLP194 T01610139
KDUJ 220553Z AUTO 06003KT 10SM CLR 18/14 A3014 RMK AO2 SLP195 T01780139 10222 20172 57000
KDUJ 220453Z AUTO 06004KT 10SM CLR 18/14 A3014 RMK AO2 SLP195 T01830139 402780133 TSNO
KDUJ 220353Z AUTO 03003KT 10SM CLR 17/13 A3014 RMK AO2 SLP196 T01720133
KDUJ 220253Z AUTO 02003KT 10SM CLR 19/14 A3014 RMK AO2 SLP196 T01890139 51009
KDUJ 220153Z AUTO 36006KT 10SM CLR 21/14 A3014 RMK AO2 SLP197 T02060139
KDUJ 220053Z AUTO 01003KT 10SM CLR 21/15 A3013 RMK AO2 SLP194 T02060150
KDUJ 212353Z AUTO 34003KT 10SM CLR 22/14 A3012 RMK AO2 SLP190 T02220144 10278 20211 53002
KDUJ 212253Z AUTO 00000KT 10SM CLR 23/14 A3011 RMK AO2 SLP187 T02280139
KDUJ 212153Z AUTO 35003KT 10SM CLR 26/12 A3011 RMK AO2 SLP187 T02610117
KDUJ 212053Z AUTO 02005KT 10SM CLR 27/11 A3011 RMK AO2 SLP185 T02720106 58006
KDUJ 211953Z AUTO 02006KT 10SM CLR 27/11 A3012 RMK AO2 SLP186 T02720106